createdAt,value
2017-03-23T00:01:05.281Z,0
2017-03-23T00:02:13.373Z,0
2017-03-23T00:03:21.498Z,0
2017-03-23T00:04:29.548Z,0
2017-03-23T00:05:37.641Z,0
2017-03-23T00:06:45.724Z,0
2017-03-23T00:07:53.807Z,0
2017-03-23T00:09:01.895Z,0
2017-03-23T00:10:09.982Z,0
2017-03-23T00:11:18.069Z,0
2017-03-23T00:12:26.176Z,0
2017-03-23T00:13:34.244Z,0
2017-03-23T00:14:42.335Z,0
2017-03-23T00:15:50.423Z,0
2017-03-23T00:16:58.513Z,0
2017-03-23T00:18:06.595Z,0
2017-03-23T00:19:14.681Z,0
2017-03-23T00:20:22.763Z,0
2017-03-23T00:21:30.850Z,0
2017-03-23T00:22:38.947Z,0
2017-03-23T00:23:47.029Z,0
2017-03-23T00:24:55.111Z,0
2017-03-23T00:26:03.203Z,0
2017-03-23T00:27:11.289Z,0
2017-03-23T00:28:19.377Z,0
2017-03-23T00:29:27.462Z,0
2017-03-23T00:30:35.552Z,0
2017-03-23T00:31:43.638Z,0
2017-03-23T00:32:51.724Z,0
2017-03-23T00:33:59.813Z,0
2017-03-23T00:35:07.901Z,0
2017-03-23T00:36:15.986Z,0
2017-03-23T00:37:24.083Z,0
2017-03-23T00:38:32.164Z,0
2017-03-23T00:39:40.252Z,0
2017-03-23T00:40:48.334Z,0
2017-03-23T00:41:56.429Z,0
2017-03-23T00:43:04.514Z,0
2017-03-23T00:44:12.612Z,0
2017-03-23T00:45:20.690Z,0
2017-03-23T00:46:28.776Z,0
2017-03-23T00:47:36.860Z,0
2017-03-23T00:48:44.950Z,0
2017-03-23T00:49:53.045Z,0
2017-03-23T00:51:01.129Z,0
2017-03-23T00:52:09.217Z,0
2017-03-23T00:53:17.303Z,0
2017-03-23T00:54:25.388Z,0
2017-03-23T00:55:33.484Z,0
2017-03-23T00:56:41.563Z,0
2017-03-23T00:57:49.655Z,0
2017-03-23T00:58:57.889Z,0
2017-03-23T01:00:05.843Z,0
2017-03-23T01:01:13.927Z,0
2017-03-23T01:02:22.013Z,0
2017-03-23T01:03:30.100Z,0
2017-03-23T01:04:38.187Z,0
2017-03-23T01:05:46.276Z,0
2017-03-23T01:06:54.362Z,0
2017-03-23T01:08:02.447Z,0
2017-03-23T01:09:10.537Z,0
2017-03-23T01:10:18.625Z,0
2017-03-23T01:11:26.712Z,0
2017-03-23T01:12:34.796Z,0
2017-03-23T01:13:42.898Z,0
2017-03-23T01:14:50.972Z,0
2017-03-23T01:15:59.058Z,0
2017-03-23T01:17:07.147Z,0
2017-03-23T01:18:15.236Z,0
2017-03-23T01:19:23.322Z,0
2017-03-23T01:20:31.408Z,0
2017-03-23T01:21:39.502Z,0
2017-03-23T01:22:47.582Z,0
2017-03-23T01:23:55.669Z,0
2017-03-23T01:25:03.761Z,0
2017-03-23T01:26:11.850Z,0
2017-03-23T01:27:19.939Z,0
2017-03-23T01:28:28.027Z,0
2017-03-23T01:29:36.119Z,0
2017-03-23T01:30:44.232Z,0
2017-03-23T01:31:52.292Z,0
2017-03-23T01:33:00.380Z,0
2017-03-23T01:34:08.468Z,0
2017-03-23T01:35:16.549Z,0
2017-03-23T01:36:24.634Z,0
2017-03-23T01:37:32.735Z,0
2017-03-23T01:38:40.816Z,0
2017-03-23T01:39:48.900Z,0
2017-03-23T01:40:56.990Z,0
2017-03-23T01:42:05.078Z,0
2017-03-23T01:43:13.162Z,0
2017-03-23T01:44:21.251Z,0
2017-03-23T01:45:29.337Z,0
2017-03-23T01:46:37.420Z,0
2017-03-23T01:47:45.537Z,0
2017-03-23T01:48:53.603Z,0
2017-03-23T01:50:01.686Z,0
2017-03-23T01:51:09.785Z,0
2017-03-23T01:52:17.874Z,0
2017-03-23T01:53:25.960Z,0
2017-03-23T01:54:34.046Z,0
2017-03-23T01:55:42.129Z,0
2017-03-23T01:56:50.218Z,0
2017-03-23T01:57:59.970Z,0
2017-03-23T01:59:06.391Z,0
2017-03-23T02:00:14.485Z,0
2017-03-23T02:01:22.574Z,0
2017-03-23T02:02:30.662Z,0
2017-03-23T02:03:38.744Z,0
2017-03-23T02:04:46.834Z,0
2017-03-23T02:05:54.922Z,0
2017-03-23T02:07:03.005Z,0
2017-03-23T02:08:11.098Z,0
2017-03-23T02:09:19.181Z,0
2017-03-23T02:10:27.272Z,0
2017-03-23T02:11:35.360Z,0
2017-03-23T02:12:43.448Z,0
2017-03-23T02:13:51.534Z,0
2017-03-23T02:14:59.622Z,0
2017-03-23T02:16:07.710Z,0
2017-03-23T02:17:15.799Z,0
2017-03-23T02:18:23.885Z,0
2017-03-23T02:19:31.967Z,0
2017-03-23T02:20:40.057Z,0
2017-03-23T02:21:48.141Z,0
2017-03-23T02:22:56.229Z,0
2017-03-23T02:24:04.320Z,0
2017-03-23T02:25:12.405Z,0
2017-03-23T02:26:20.494Z,0
2017-03-23T02:27:28.583Z,0
2017-03-23T02:28:36.668Z,0
2017-03-23T02:29:44.765Z,0
2017-03-23T02:30:52.843Z,0
2017-03-23T02:32:00.935Z,0
2017-03-23T02:33:09.023Z,0
2017-03-23T02:34:17.108Z,0
2017-03-23T02:35:25.193Z,0
2017-03-23T02:36:33.282Z,0
2017-03-23T02:37:41.371Z,0
2017-03-23T02:38:49.459Z,0
2017-03-23T02:39:57.546Z,0
2017-03-23T02:41:05.632Z,0
2017-03-23T02:42:13.718Z,0
2017-03-23T02:43:21.802Z,0
2017-03-23T02:44:29.894Z,0
2017-03-23T02:45:37.975Z,0
2017-03-23T02:46:46.063Z,0
2017-03-23T02:47:54.152Z,0
2017-03-23T02:49:02.240Z,0
2017-03-23T02:50:10.330Z,0
2017-03-23T02:51:18.415Z,0
2017-03-23T02:52:26.502Z,0
2017-03-23T02:53:34.589Z,0
2017-03-23T02:54:42.670Z,0
2017-03-23T02:55:50.761Z,0
2017-03-23T02:56:58.848Z,0
2017-03-23T02:58:06.929Z,0
2017-03-23T02:59:15.022Z,0
2017-03-23T03:00:23.110Z,0
2017-03-23T03:01:31.203Z,0
2017-03-23T03:02:39.288Z,0
2017-03-23T03:03:47.378Z,0
2017-03-23T03:04:55.469Z,0
2017-03-23T03:06:03.553Z,0
2017-03-23T03:07:11.644Z,0
2017-03-23T03:08:19.739Z,0
2017-03-23T03:09:27.822Z,0
2017-03-23T03:10:35.910Z,0
2017-03-23T03:11:44.000Z,0
2017-03-23T03:12:52.164Z,0
2017-03-23T03:14:00.173Z,0
2017-03-23T03:15:08.261Z,0
2017-03-23T03:16:16.353Z,0
2017-03-23T03:17:24.438Z,0
2017-03-23T03:18:32.523Z,0
2017-03-23T03:19:40.615Z,0
2017-03-23T03:20:48.702Z,0
2017-03-23T03:21:56.790Z,0
2017-03-23T03:23:04.880Z,0
2017-03-23T03:24:12.971Z,0
2017-03-23T03:25:21.056Z,0
2017-03-23T03:26:29.137Z,0
2017-03-23T03:27:37.228Z,0
2017-03-23T03:28:45.314Z,0
2017-03-23T03:29:53.396Z,0
2017-03-23T03:31:01.486Z,0
2017-03-23T03:32:09.574Z,0
2017-03-23T03:33:17.655Z,0
2017-03-23T03:34:25.770Z,0
2017-03-23T03:35:33.832Z,0
2017-03-23T03:36:41.918Z,0
2017-03-23T03:37:50.005Z,0
2017-03-23T03:38:58.096Z,0
2017-03-23T03:40:06.187Z,0
2017-03-23T03:41:14.269Z,0
2017-03-23T03:42:22.353Z,0
2017-03-23T03:43:30.441Z,0
2017-03-23T03:44:38.531Z,0
2017-03-23T03:45:46.612Z,0
2017-03-23T03:46:54.704Z,0
2017-03-23T03:48:02.792Z,0
2017-03-23T03:49:10.873Z,0
2017-03-23T03:50:18.963Z,0
2017-03-23T03:51:27.055Z,0
2017-03-23T03:52:35.141Z,0
2017-03-23T03:53:43.226Z,0
2017-03-23T03:54:51.315Z,0
2017-03-23T03:55:59.400Z,0
2017-03-23T03:57:07.485Z,0
2017-03-23T03:58:15.572Z,0
2017-03-23T03:59:23.691Z,0
2017-03-23T04:00:31.751Z,0
2017-03-23T04:01:39.831Z,0
2017-03-23T04:02:47.919Z,0
2017-03-23T04:03:56.017Z,0
2017-03-23T04:05:04.099Z,0
2017-03-23T04:06:12.224Z,0
2017-03-23T04:07:20.279Z,0
2017-03-23T04:08:28.364Z,0
2017-03-23T04:09:36.457Z,0
2017-03-23T04:10:44.552Z,0
2017-03-23T04:11:52.626Z,0
2017-03-23T04:13:00.711Z,0
2017-03-23T04:14:08.828Z,0
2017-03-23T04:15:16.886Z,0
2017-03-23T04:16:24.985Z,0
2017-03-23T04:17:33.059Z,0
2017-03-23T04:18:41.150Z,0
2017-03-23T04:19:49.241Z,0
2017-03-23T04:20:57.323Z,0
2017-03-23T04:22:05.412Z,0
2017-03-23T04:23:13.496Z,0
2017-03-23T04:24:21.581Z,0
2017-03-23T04:25:29.667Z,0
2017-03-23T04:26:37.762Z,0
2017-03-23T04:27:45.849Z,0
2017-03-23T04:28:53.935Z,0
2017-03-23T04:30:02.017Z,0
2017-03-23T04:31:10.106Z,0
2017-03-23T04:32:18.188Z,0
2017-03-23T04:33:26.276Z,0
2017-03-23T04:34:34.366Z,0
2017-03-23T04:35:42.454Z,0
2017-03-23T04:36:50.538Z,0
2017-03-23T04:37:58.629Z,0
2017-03-23T04:39:06.715Z,0
2017-03-23T04:40:14.802Z,0
2017-03-23T04:41:22.885Z,0
2017-03-23T04:42:30.974Z,0
2017-03-23T04:43:39.061Z,0
2017-03-23T04:44:47.477Z,0
2017-03-23T04:45:55.554Z,0
2017-03-23T04:47:03.459Z,0
2017-03-23T04:48:11.556Z,0
2017-03-23T04:49:19.637Z,0
2017-03-23T04:50:27.753Z,0
2017-03-23T04:51:35.837Z,0
2017-03-23T04:52:44.393Z,0
2017-03-23T04:53:52.257Z,0
2017-03-23T04:55:00.194Z,0
2017-03-23T04:56:07.999Z,0
2017-03-23T04:57:16.105Z,0
2017-03-23T04:58:24.173Z,0
2017-03-23T04:59:32.270Z,0
2017-03-23T05:00:40.345Z,0
2017-03-23T05:01:48.436Z,0
2017-03-23T05:02:56.551Z,0
2017-03-23T05:04:04.606Z,0
2017-03-23T05:05:12.695Z,0
2017-03-23T05:06:20.781Z,0
2017-03-23T05:07:29.142Z,0
2017-03-23T05:08:37.144Z,0
2017-03-23T05:09:45.365Z,0
2017-03-23T05:10:53.482Z,0
2017-03-23T05:12:01.773Z,0
2017-03-23T05:13:11.109Z,0
2017-03-23T05:14:17.843Z,0
2017-03-23T05:15:25.724Z,0
2017-03-23T05:16:34.537Z,0
2017-03-23T05:17:42.034Z,0
2017-03-23T05:18:50.066Z,0
2017-03-23T05:19:58.203Z,0
2017-03-23T05:21:06.357Z,0
2017-03-23T05:22:14.034Z,0
2017-03-23T05:23:22.631Z,0
2017-03-23T05:24:30.150Z,0
2017-03-23T05:25:38.245Z,0
2017-03-23T05:26:46.320Z,0
2017-03-23T05:27:54.411Z,0
2017-03-23T05:29:02.498Z,0
2017-03-23T05:30:10.584Z,0
2017-03-23T05:31:18.670Z,0
2017-03-23T05:32:26.751Z,0
2017-03-23T05:33:34.841Z,0
2017-03-23T05:34:42.920Z,0
2017-03-23T05:35:51.005Z,0
2017-03-23T05:36:59.096Z,0
2017-03-23T05:38:07.188Z,0
2017-03-23T05:39:15.305Z,0
2017-03-23T05:40:23.350Z,4
2017-03-23T05:41:31.439Z,4
2017-03-23T05:42:39.523Z,4
2017-03-23T05:43:48.185Z,0
2017-03-23T05:44:55.694Z,0
2017-03-23T05:46:03.783Z,0
2017-03-23T05:47:11.864Z,4
2017-03-23T05:48:19.950Z,4
2017-03-23T05:49:28.038Z,4
2017-03-23T05:50:36.126Z,4
2017-03-23T05:51:44.338Z,4
2017-03-23T05:52:52.295Z,0
2017-03-23T05:54:00.380Z,0
2017-03-23T05:55:08.465Z,4
2017-03-23T05:56:16.551Z,4
2017-03-23T05:57:24.638Z,4
2017-03-23T05:58:32.789Z,4
2017-03-23T05:59:41.328Z,8
2017-03-23T06:00:49.291Z,4
2017-03-23T06:01:56.979Z,4
2017-03-23T06:03:05.067Z,4
2017-03-23T06:04:13.147Z,8
2017-03-23T06:05:21.236Z,4
2017-03-23T06:06:29.326Z,4
2017-03-23T06:07:37.403Z,8
2017-03-23T06:08:45.498Z,8
2017-03-23T06:09:53.583Z,8
2017-03-23T06:11:01.664Z,8
2017-03-23T06:12:09.758Z,4
2017-03-23T06:13:17.849Z,8
2017-03-23T06:14:25.936Z,8
2017-03-23T06:15:34.018Z,8
2017-03-23T06:16:42.110Z,8
2017-03-23T06:17:50.203Z,12
2017-03-23T06:18:58.285Z,8
2017-03-23T06:20:06.381Z,12
2017-03-23T06:21:14.463Z,16
2017-03-23T06:22:22.585Z,12
2017-03-23T06:23:30.632Z,12
2017-03-23T06:24:38.729Z,16
2017-03-23T06:25:46.805Z,16
2017-03-23T06:26:54.890Z,16
2017-03-23T06:28:02.978Z,12
2017-03-23T06:29:11.063Z,16
2017-03-23T06:30:19.152Z,12
2017-03-23T06:31:27.234Z,12
2017-03-23T06:32:35.354Z,16
2017-03-23T06:33:43.411Z,16
2017-03-23T06:34:51.491Z,20
2017-03-23T06:35:59.583Z,16
2017-03-23T06:37:07.668Z,12
2017-03-23T06:38:15.753Z,16
2017-03-23T06:39:23.838Z,12
2017-03-23T06:40:31.928Z,20
2017-03-23T06:41:40.013Z,20
2017-03-23T06:42:48.094Z,20
2017-03-23T06:43:56.182Z,12
2017-03-23T06:45:04.314Z,12
2017-03-23T06:46:12.759Z,12
2017-03-23T06:47:20.433Z,12
2017-03-23T06:48:28.526Z,16
2017-03-23T06:49:36.613Z,12
2017-03-23T06:50:44.695Z,16
2017-03-23T06:51:52.786Z,20
2017-03-23T06:53:00.871Z,20
2017-03-23T06:54:08.954Z,28
2017-03-23T06:55:17.035Z,28
2017-03-23T06:56:25.128Z,24
2017-03-23T06:57:33.204Z,24
2017-03-23T06:58:41.291Z,32
2017-03-23T06:59:49.390Z,28
2017-03-23T07:00:57.465Z,36
2017-03-23T07:02:05.602Z,40
2017-03-23T07:03:13.631Z,36
2017-03-23T07:04:21.724Z,28
2017-03-23T07:05:29.806Z,24
2017-03-23T07:06:37.888Z,28
2017-03-23T07:07:45.975Z,24
2017-03-23T07:08:54.066Z,24
2017-03-23T07:10:02.147Z,28
2017-03-23T07:11:10.239Z,28
2017-03-23T07:12:18.325Z,28
2017-03-23T07:13:26.408Z,28
2017-03-23T07:14:34.491Z,32
2017-03-23T07:15:42.587Z,32
2017-03-23T07:16:50.664Z,36
2017-03-23T07:17:58.746Z,40
2017-03-23T07:19:06.925Z,40
2017-03-23T07:20:14.919Z,36
2017-03-23T07:21:23.001Z,36
2017-03-23T07:22:31.088Z,32
2017-03-23T07:23:39.173Z,32
2017-03-23T07:24:47.258Z,32
2017-03-23T07:25:55.340Z,36
2017-03-23T07:27:03.427Z,32
2017-03-23T07:28:11.515Z,32
2017-03-23T07:29:19.598Z,36
2017-03-23T07:30:27.675Z,36
2017-03-23T07:31:35.764Z,36
2017-03-23T07:32:43.850Z,44
2017-03-23T07:33:51.929Z,44
2017-03-23T07:35:00.021Z,40
2017-03-23T07:36:08.107Z,40
2017-03-23T07:37:16.197Z,36
2017-03-23T07:38:24.281Z,32
2017-03-23T07:39:32.372Z,32
2017-03-23T07:40:40.459Z,28
2017-03-23T07:41:48.544Z,28
2017-03-23T07:42:56.631Z,32
2017-03-23T07:44:04.718Z,32
2017-03-23T07:45:12.797Z,36
2017-03-23T07:46:20.882Z,36
2017-03-23T07:47:28.969Z,40
2017-03-23T07:48:37.061Z,44
2017-03-23T07:49:45.136Z,36
2017-03-23T07:50:53.225Z,32
2017-03-23T07:52:01.310Z,32
2017-03-23T07:53:09.397Z,32
2017-03-23T07:54:17.477Z,32
2017-03-23T07:55:25.570Z,36
2017-03-23T07:56:33.653Z,32
2017-03-23T07:57:41.734Z,28
2017-03-23T07:58:49.822Z,28
2017-03-23T07:59:57.904Z,24
2017-03-23T08:01:05.985Z,28
2017-03-23T08:02:14.076Z,28
2017-03-23T08:03:22.167Z,28
2017-03-23T08:04:30.243Z,32
2017-03-23T08:05:38.324Z,32
2017-03-23T08:06:46.412Z,32
2017-03-23T08:07:54.500Z,36
2017-03-23T08:09:02.584Z,40
2017-03-23T08:10:10.673Z,44
2017-03-23T08:11:18.758Z,44
2017-03-23T08:12:26.844Z,48
2017-03-23T08:13:34.924Z,44
2017-03-23T08:14:43.014Z,48
2017-03-23T08:15:51.099Z,40
2017-03-23T08:16:59.188Z,36
2017-03-23T08:18:07.267Z,36
2017-03-23T08:19:15.349Z,36
2017-03-23T08:20:23.433Z,36
2017-03-23T08:21:31.518Z,28
2017-03-23T08:22:39.604Z,24
2017-03-23T08:23:47.695Z,20
2017-03-23T08:24:55.773Z,20
2017-03-23T08:26:03.873Z,36
2017-03-23T08:27:11.947Z,36
2017-03-23T08:28:20.029Z,44
2017-03-23T08:29:28.112Z,44
2017-03-23T08:30:36.200Z,44
2017-03-23T08:31:44.287Z,44
2017-03-23T08:32:52.363Z,36
2017-03-23T08:34:00.452Z,44
2017-03-23T08:35:08.574Z,44
2017-03-23T08:36:16.621Z,44
2017-03-23T08:37:24.701Z,44
2017-03-23T08:38:32.797Z,40
2017-03-23T08:39:40.884Z,44
2017-03-23T08:40:48.968Z,44
2017-03-23T08:41:57.051Z,40
2017-03-23T08:43:05.136Z,44
2017-03-23T08:44:13.218Z,44
2017-03-23T08:45:21.304Z,44
2017-03-23T08:46:29.391Z,40
2017-03-23T08:47:37.474Z,44
2017-03-23T08:48:45.567Z,44
2017-03-23T08:49:53.645Z,40
2017-03-23T08:51:01.729Z,44
2017-03-23T08:52:09.816Z,44
2017-03-23T08:53:17.898Z,44
2017-03-23T08:54:25.992Z,44
2017-03-23T08:55:34.085Z,44
2017-03-23T08:56:42.161Z,44
2017-03-23T08:57:50.249Z,44
2017-03-23T08:58:58.330Z,44
2017-03-23T09:00:06.418Z,44
2017-03-23T09:01:14.505Z,44
2017-03-23T09:02:22.591Z,44
2017-03-23T09:03:30.676Z,44
2017-03-23T09:04:38.762Z,44
2017-03-23T09:05:46.844Z,44
2017-03-23T09:06:54.933Z,44
2017-03-23T09:08:03.015Z,44
2017-03-23T09:09:11.102Z,48
2017-03-23T09:10:19.190Z,44
2017-03-23T09:11:27.268Z,44
2017-03-23T09:12:35.355Z,48
2017-03-23T09:13:43.440Z,48
2017-03-23T09:14:51.524Z,48
2017-03-23T09:15:59.611Z,48
2017-03-23T09:17:07.689Z,48
2017-03-23T09:18:15.782Z,48
2017-03-23T09:19:23.866Z,48
2017-03-23T09:20:31.948Z,48
2017-03-23T09:21:40.037Z,52
2017-03-23T09:22:48.127Z,52
2017-03-23T09:23:56.204Z,52
2017-03-23T09:25:04.296Z,52
2017-03-23T09:26:12.382Z,52
2017-03-23T09:27:20.463Z,52
2017-03-23T09:28:28.545Z,48
2017-03-23T09:29:36.646Z,52
2017-03-23T09:30:44.733Z,48
2017-03-23T09:31:52.813Z,52
2017-03-23T09:33:00.901Z,48
2017-03-23T09:34:08.988Z,48
2017-03-23T09:35:17.067Z,48
2017-03-23T09:36:25.151Z,48
2017-03-23T09:37:33.240Z,48
2017-03-23T09:38:41.329Z,48
2017-03-23T09:39:49.411Z,48
2017-03-23T09:40:57.498Z,48
2017-03-23T09:42:05.585Z,48
2017-03-23T09:43:13.671Z,52
2017-03-23T09:44:21.752Z,48
2017-03-23T09:45:29.840Z,52
2017-03-23T09:46:37.922Z,52
2017-03-23T09:47:46.006Z,48
2017-03-23T09:48:54.096Z,48
2017-03-23T09:50:02.178Z,48
2017-03-23T09:51:10.265Z,52
2017-03-23T09:52:18.348Z,48
2017-03-23T09:53:26.436Z,52
2017-03-23T09:54:34.523Z,52
2017-03-23T09:55:42.605Z,48
2017-03-23T09:56:50.692Z,52
2017-03-23T09:57:58.788Z,52
2017-03-23T09:59:06.861Z,52
2017-03-23T10:00:14.947Z,52
2017-03-23T10:01:23.034Z,52
2017-03-23T10:02:31.118Z,52
2017-03-23T10:03:39.206Z,52
2017-03-23T10:04:47.344Z,52
2017-03-23T10:05:55.376Z,52
2017-03-23T10:07:03.459Z,52
2017-03-23T10:08:11.548Z,52
2017-03-23T10:09:19.634Z,56
2017-03-23T10:10:27.718Z,52
2017-03-23T10:11:35.814Z,52
2017-03-23T10:12:43.895Z,52
2017-03-23T10:13:51.977Z,52
2017-03-23T10:15:00.064Z,52
2017-03-23T10:16:08.147Z,56
2017-03-23T10:17:16.233Z,56
2017-03-23T10:18:24.320Z,52
2017-03-23T10:19:32.399Z,52
2017-03-23T10:20:40.489Z,52
2017-03-23T10:21:48.618Z,52
2017-03-23T10:22:56.664Z,52
2017-03-23T10:24:04.752Z,52
2017-03-23T10:25:12.836Z,52
2017-03-23T10:26:20.922Z,52
2017-03-23T10:27:29.005Z,52
2017-03-23T10:28:37.092Z,52
2017-03-23T10:29:45.183Z,52
2017-03-23T10:30:53.265Z,48
2017-03-23T10:32:01.355Z,48
2017-03-23T10:33:09.438Z,52
2017-03-23T10:34:17.524Z,48
2017-03-23T10:35:25.606Z,48
2017-03-23T10:36:33.695Z,48
2017-03-23T10:37:41.782Z,52
2017-03-23T10:38:49.867Z,48
2017-03-23T10:39:57.952Z,52
2017-03-23T10:41:06.034Z,52
2017-03-23T10:42:14.124Z,48
2017-03-23T10:43:22.208Z,48
2017-03-23T10:44:30.297Z,52
2017-03-23T10:45:38.379Z,48
2017-03-23T10:46:46.471Z,48
2017-03-23T10:47:54.557Z,48
2017-03-23T10:49:02.641Z,48
2017-03-23T10:50:10.736Z,48
2017-03-23T10:51:18.819Z,48
2017-03-23T10:52:26.907Z,48
2017-03-23T10:53:34.991Z,48
2017-03-23T10:54:43.075Z,52
2017-03-23T10:55:51.166Z,48
2017-03-23T10:56:59.248Z,48
2017-03-23T10:58:07.328Z,48
2017-03-23T10:59:15.414Z,52
2017-03-23T11:00:23.505Z,52
2017-03-23T11:01:31.596Z,52
2017-03-23T11:02:39.677Z,48
2017-03-23T11:03:47.761Z,52
2017-03-23T11:04:55.847Z,52
2017-03-23T11:06:03.931Z,52
2017-03-23T11:07:12.015Z,48
2017-03-23T11:08:20.100Z,48
2017-03-23T11:09:28.185Z,52
2017-03-23T11:10:36.270Z,48
2017-03-23T11:11:44.357Z,52
2017-03-23T11:12:52.441Z,48
2017-03-23T11:14:00.526Z,48
2017-03-23T11:15:08.614Z,48
2017-03-23T11:16:16.697Z,52
2017-03-23T11:17:24.783Z,52
2017-03-23T11:18:32.863Z,52
2017-03-23T11:19:40.953Z,48
2017-03-23T11:20:49.039Z,52
2017-03-23T11:21:57.122Z,48
2017-03-23T11:23:05.208Z,52
2017-03-23T11:24:13.294Z,48
2017-03-23T11:25:21.380Z,52
2017-03-23T11:26:29.462Z,48
2017-03-23T11:27:37.550Z,48
2017-03-23T11:28:45.633Z,48
2017-03-23T11:29:53.725Z,48
2017-03-23T11:31:01.811Z,48
2017-03-23T11:32:09.895Z,48
2017-03-23T11:33:17.978Z,48
2017-03-23T11:34:26.061Z,52
2017-03-23T11:35:34.153Z,52
2017-03-23T11:36:42.240Z,48
2017-03-23T11:37:50.322Z,48
2017-03-23T11:38:58.410Z,48
2017-03-23T11:40:06.496Z,52
2017-03-23T11:41:14.588Z,48
2017-03-23T11:42:22.668Z,44
2017-03-23T11:43:30.755Z,44
2017-03-23T11:44:38.843Z,48
2017-03-23T11:45:46.927Z,48
2017-03-23T11:46:55.015Z,48
2017-03-23T11:48:03.105Z,44
2017-03-23T11:49:11.188Z,44
2017-03-23T11:50:19.271Z,44
2017-03-23T11:51:27.362Z,44
2017-03-23T11:52:35.447Z,44
2017-03-23T11:53:43.532Z,44
2017-03-23T11:54:51.616Z,44
2017-03-23T11:55:59.708Z,44
2017-03-23T11:57:07.788Z,44
2017-03-23T11:58:15.872Z,44
2017-03-23T11:59:23.963Z,44
2017-03-23T12:00:32.047Z,44
2017-03-23T12:01:40.130Z,44
2017-03-23T12:02:48.221Z,44
2017-03-23T12:03:56.305Z,44
2017-03-23T12:05:04.392Z,48
2017-03-23T12:06:12.472Z,44
2017-03-23T12:07:20.561Z,48
2017-03-23T12:08:28.644Z,44
2017-03-23T12:09:36.729Z,48
2017-03-23T12:10:44.815Z,44
2017-03-23T12:11:52.902Z,48
2017-03-23T12:13:00.990Z,44
2017-03-23T12:14:09.076Z,44
2017-03-23T12:15:17.162Z,48
2017-03-23T12:16:25.255Z,44
2017-03-23T12:17:33.330Z,44
2017-03-23T12:18:41.425Z,48
2017-03-23T12:19:49.513Z,36
2017-03-23T12:20:57.651Z,40
2017-03-23T12:22:05.681Z,44
2017-03-23T12:23:13.770Z,44
2017-03-23T12:24:21.851Z,44
2017-03-23T12:25:29.942Z,44
2017-03-23T12:26:38.039Z,44
2017-03-23T12:27:46.126Z,44
2017-03-23T12:28:54.213Z,44
2017-03-23T12:30:02.293Z,44
2017-03-23T12:31:10.383Z,44
2017-03-23T12:32:18.471Z,40
2017-03-23T12:33:26.553Z,44
2017-03-23T12:34:34.642Z,48
2017-03-23T12:35:42.728Z,44
2017-03-23T12:36:50.810Z,44
2017-03-23T12:37:58.925Z,48
2017-03-23T12:39:06.996Z,48
2017-03-23T12:40:15.076Z,48
2017-03-23T12:41:23.156Z,48
2017-03-23T12:42:31.250Z,48
2017-03-23T12:43:39.339Z,52
2017-03-23T12:44:47.419Z,48
2017-03-23T12:45:55.507Z,52
2017-03-23T12:47:03.596Z,48
2017-03-23T12:48:11.681Z,44
2017-03-23T12:49:19.767Z,48
2017-03-23T12:50:27.855Z,52
2017-03-23T12:51:35.940Z,52
2017-03-23T12:52:44.027Z,48
2017-03-23T12:53:52.114Z,52
2017-03-23T12:55:00.205Z,52
2017-03-23T12:56:08.281Z,48
2017-03-23T12:57:16.367Z,52
2017-03-23T12:58:24.458Z,52
2017-03-23T12:59:32.538Z,52
2017-03-23T13:00:40.626Z,48
2017-03-23T13:01:48.710Z,48
2017-03-23T13:02:56.798Z,48
2017-03-23T13:04:04.885Z,48
2017-03-23T13:05:12.969Z,48
2017-03-23T13:06:21.058Z,48
2017-03-23T13:07:29.165Z,44
2017-03-23T13:08:37.224Z,48
2017-03-23T13:09:45.314Z,48
2017-03-23T13:10:53.400Z,48
2017-03-23T13:12:01.482Z,48
2017-03-23T13:13:09.583Z,44
2017-03-23T13:14:17.661Z,48
2017-03-23T13:15:25.755Z,44
2017-03-23T13:16:33.837Z,44
2017-03-23T13:17:41.922Z,44
2017-03-23T13:18:50.012Z,44
2017-03-23T13:19:58.091Z,44
2017-03-23T13:21:06.175Z,44
2017-03-23T13:22:14.268Z,44
2017-03-23T13:23:22.364Z,44
2017-03-23T13:24:30.463Z,48
2017-03-23T13:25:38.532Z,48
2017-03-23T13:26:46.621Z,44
2017-03-23T13:27:54.704Z,44
2017-03-23T13:29:02.786Z,48
2017-03-23T13:30:10.874Z,48
2017-03-23T13:31:18.960Z,44
2017-03-23T13:32:27.042Z,44
2017-03-23T13:33:35.130Z,48
2017-03-23T13:34:43.212Z,44
2017-03-23T13:35:51.296Z,44
2017-03-23T13:36:59.383Z,44
2017-03-23T13:38:07.471Z,40
2017-03-23T13:39:15.558Z,48
2017-03-23T13:40:23.642Z,44
2017-03-23T13:41:31.769Z,44
2017-03-23T13:42:39.810Z,48
2017-03-23T13:43:47.898Z,44
2017-03-23T13:44:55.981Z,44
2017-03-23T13:46:04.065Z,44
2017-03-23T13:47:12.151Z,48
2017-03-23T13:48:20.243Z,48
2017-03-23T13:49:28.326Z,52
2017-03-23T13:50:36.417Z,48
2017-03-23T13:51:44.501Z,48
2017-03-23T13:52:52.584Z,52
2017-03-23T13:54:00.669Z,52
2017-03-23T13:55:08.758Z,52
2017-03-23T13:56:16.837Z,52
2017-03-23T13:57:24.933Z,52
2017-03-23T13:58:33.016Z,52
2017-03-23T13:59:41.096Z,52
2017-03-23T14:00:49.186Z,52
2017-03-23T14:01:57.271Z,52
2017-03-23T14:03:05.359Z,48
2017-03-23T14:04:13.437Z,48
2017-03-23T14:05:21.529Z,52
2017-03-23T14:06:29.615Z,52
2017-03-23T14:07:37.697Z,52
2017-03-23T14:08:45.787Z,48
2017-03-23T14:09:53.874Z,44
2017-03-23T14:11:01.954Z,44
2017-03-23T14:12:10.039Z,44
2017-03-23T14:13:18.131Z,44
2017-03-23T14:14:26.214Z,44
2017-03-23T14:15:34.295Z,44
2017-03-23T14:16:42.384Z,48
2017-03-23T14:17:50.472Z,48
2017-03-23T14:18:58.570Z,48
2017-03-23T14:20:06.651Z,48
2017-03-23T14:21:14.746Z,44
2017-03-23T14:22:22.831Z,44
2017-03-23T14:23:30.917Z,44
2017-03-23T14:24:39.022Z,40
2017-03-23T14:25:47.100Z,44
2017-03-23T14:26:55.185Z,48
2017-03-23T14:28:03.268Z,44
2017-03-23T14:29:11.354Z,44
2017-03-23T14:30:19.447Z,40
2017-03-23T14:31:27.529Z,44
2017-03-23T14:32:35.623Z,40
2017-03-23T14:33:43.715Z,44
2017-03-23T14:34:51.793Z,48
2017-03-23T14:35:59.877Z,48
2017-03-23T14:37:07.975Z,44
2017-03-23T14:38:16.052Z,48
2017-03-23T14:39:24.137Z,48
2017-03-23T14:40:32.226Z,48
2017-03-23T14:41:40.316Z,48
2017-03-23T14:42:48.397Z,48
2017-03-23T14:43:56.489Z,52
2017-03-23T14:45:04.576Z,48
2017-03-23T14:46:12.660Z,48
2017-03-23T14:47:20.744Z,44
2017-03-23T14:48:28.831Z,52
2017-03-23T14:49:36.918Z,48
2017-03-23T14:50:44.998Z,48
2017-03-23T14:51:53.090Z,52
2017-03-23T14:53:01.173Z,48
2017-03-23T14:54:09.259Z,32
2017-03-23T14:55:17.349Z,40
2017-03-23T14:56:25.432Z,40
2017-03-23T14:57:33.515Z,48
2017-03-23T14:58:41.596Z,48
2017-03-23T14:59:49.685Z,48
2017-03-23T15:00:57.773Z,48
2017-03-23T15:02:05.858Z,52
2017-03-23T15:03:13.940Z,52
2017-03-23T15:04:22.030Z,52
2017-03-23T15:05:30.112Z,52
2017-03-23T15:06:38.274Z,52
2017-03-23T15:07:46.283Z,48
2017-03-23T15:08:54.365Z,48
2017-03-23T15:10:02.458Z,40
2017-03-23T15:11:10.543Z,44
2017-03-23T15:12:18.630Z,44
2017-03-23T15:13:26.715Z,40
2017-03-23T15:14:34.800Z,36
2017-03-23T15:15:42.886Z,36
2017-03-23T15:16:50.970Z,32
2017-03-23T15:17:59.055Z,32
2017-03-23T15:19:07.136Z,28
2017-03-23T15:20:15.225Z,28
2017-03-23T15:21:23.309Z,32
2017-03-23T15:22:31.394Z,32
2017-03-23T15:23:39.486Z,36
2017-03-23T15:24:47.574Z,32
2017-03-23T15:25:55.658Z,36
2017-03-23T15:27:03.741Z,32
2017-03-23T15:28:11.836Z,28
2017-03-23T15:29:19.914Z,32
2017-03-23T15:30:27.995Z,32
2017-03-23T15:31:36.083Z,28
2017-03-23T15:32:44.167Z,32
2017-03-23T15:33:52.249Z,32
2017-03-23T15:35:00.335Z,32
2017-03-23T15:36:08.427Z,32
2017-03-23T15:37:16.509Z,32
2017-03-23T15:38:24.597Z,28
2017-03-23T15:39:32.683Z,28
2017-03-23T15:40:40.772Z,28
2017-03-23T15:41:48.851Z,28
2017-03-23T15:42:56.934Z,28
2017-03-23T15:44:05.020Z,28
2017-03-23T15:45:13.105Z,24
2017-03-23T15:46:21.193Z,24
2017-03-23T15:47:29.281Z,24
2017-03-23T15:48:37.368Z,24
2017-03-23T15:49:45.456Z,24
2017-03-23T15:50:53.540Z,24
2017-03-23T15:52:01.623Z,24
2017-03-23T15:53:09.720Z,24
2017-03-23T15:54:17.790Z,24
2017-03-23T15:55:25.875Z,24
2017-03-23T15:56:33.962Z,24
2017-03-23T15:57:42.044Z,24
2017-03-23T15:58:50.132Z,24
2017-03-23T15:59:58.221Z,20
2017-03-23T16:01:06.304Z,20
2017-03-23T16:02:14.387Z,24
2017-03-23T16:03:22.475Z,16
2017-03-23T16:04:30.563Z,20
2017-03-23T16:05:38.648Z,20
2017-03-23T16:06:46.731Z,20
2017-03-23T16:07:54.817Z,20
2017-03-23T16:09:02.899Z,20
2017-03-23T16:10:10.985Z,20
2017-03-23T16:11:19.075Z,20
2017-03-23T16:12:27.159Z,16
2017-03-23T16:13:35.244Z,20
2017-03-23T17:21:40.342Z,0
2017-03-23T17:22:48.426Z,4
2017-03-23T17:23:56.549Z,4
2017-03-23T17:25:04.599Z,4
2017-03-23T17:26:12.686Z,0
2017-03-23T17:27:20.771Z,0
2017-03-23T17:28:28.857Z,4
2017-03-23T17:29:36.945Z,4
2017-03-23T17:30:45.029Z,4
2017-03-23T17:31:53.115Z,0